Time;durP1;ratioP1;P1;durP2;ratioP2;P2;SDS_P1;SDS_P2;PMS_P1;PMS_P2;Temp;Humidity;BMP_temperature;BMP_pressure;BME280_temperature;BME280_humidity;BME280_pressure;Samples;Min_cycle;Max_cycle;Signal;HPM_P1;HPM_P2
2021/12/22 00:01:54;;;;;;;10.70;8.70;;;;;;;;;;5072529;28;20793;-61
2021/12/22 00:04:23;;;;;;;32.27;10.00;;;;;;;;;;5072418;28;20465;-61
2021/12/22 00:06:49;;;;;;;10.47;9.00;;;;;;;;;;5072286;28;20544;-62
2021/12/22 00:09:17;;;;;;;48.37;10.17;;;;;;;;;;5072448;28;20434;-62
2021/12/22 00:11:43;;;;;;;9.67;8.67;;;;;;;;;;5072330;28;20438;-62
2021/12/22 00:14:10;;;;;;;12.60;8.83;;;;;;;;;;5072369;28;20899;-62
2021/12/22 00:16:36;;;;;;;15.13;8.80;;;;;;;;;;5072475;28;20442;-62
2021/12/22 00:19:02;;;;;;;27.73;9.53;;;;;;;;;;5072325;28;20465;-62
2021/12/22 00:21:48;;;;;;;11.83;9.30;;;;;;;;;;5072450;28;20472;-61
2021/12/22 00:24:16;;;;;;;20.43;10.23;;;;;;;;;;5070139;28;20499;-60
2021/12/22 00:26:42;;;;;;;10.13;8.23;;;;;;;;;;5072197;28;20466;-59
2021/12/22 00:29:08;;;;;;;37.60;9.70;;;;;;;;;;5071653;28;20430;-59
2021/12/22 00:31:45;;;;;;;12.37;8.53;;;;;;;;;;5072213;28;20434;-60
2021/12/22 00:34:16;;;;;;;11.00;9.23;;;;;;;;;;5071898;28;20434;-60
2021/12/22 00:36:43;;;;;;;13.20;9.33;;;;;;;;;;5072149;28;20956;-60
2021/12/22 00:39:09;;;;;;;9.80;8.77;;;;;;;;;;5071981;28;20438;-60
2021/12/22 00:41:36;;;;;;;11.20;9.00;;;;;;;;;;5072228;28;20446;-60
2021/12/22 00:44:02;;;;;;;47.10;10.40;;;;;;;;;;5072151;28;20442;-60
2021/12/22 00:46:28;;;;;;;12.43;10.07;;;;;;;;;;5072297;28;20541;-59
2021/12/22 00:48:54;;;;;;;13.57;9.50;;;;;;;;;;5072088;28;20533;-60
2021/12/22 00:51:21;;;;;;;15.80;9.43;;;;;;;;;;5072060;28;20568;-60
2021/12/22 00:53:46;;;;;;;15.57;10.30;;;;;;;;;;5071982;28;20434;-59
2021/12/22 00:56:13;;;;;;;11.63;9.77;;;;;;;;;;5072047;28;20766;-59
2021/12/22 00:58:40;;;;;;;12.67;9.97;;;;;;;;;;5071574;28;20261;-60
2021/12/22 01:01:06;;;;;;;13.17;9.80;;;;;;;;;;5071857;28;20944;-60
2021/12/22 01:03:35;;;;;;;16.07;10.83;;;;;;;;;;5071672;28;20448;-59
2021/12/22 01:06:01;;;;;;;15.83;10.63;;;;;;;;;;5071685;28;20478;-60
2021/12/22 01:08:27;;;;;;;14.90;10.40;;;;;;;;;;5071826;28;20488;-59
2021/12/22 01:10:53;;;;;;;15.00;11.20;;;;;;;;;;5071669;28;20845;-59
2021/12/22 01:13:19;;;;;;;13.90;11.17;;;;;;;;;;5071871;28;20859;-60
2021/12/22 01:15:47;;;;;;;16.17;11.20;;;;;;;;;;5071740;28;20805;-61
2021/12/22 01:18:16;;;;;;;13.00;10.80;;;;;;;;;;5071619;28;20442;-60
2021/12/22 01:21:22;;;;;;;13.77;10.67;;;;;;;;;;5071683;28;20433;-60
2021/12/22 01:23:48;;;;;;;13.30;10.57;;;;;;;;;;5070418;28;20567;-61
2021/12/22 01:26:14;;;;;;;13.87;9.87;;;;;;;;;;5071704;28;20527;-60
2021/12/22 01:28:42;;;;;;;13.77;10.10;;;;;;;;;;5071627;28;20483;-60
2021/12/22 01:31:15;;;;;;;16.37;10.20;;;;;;;;;;5071445;28;20928;-60
2021/12/22 01:33:41;;;;;;;12.33;9.97;;;;;;;;;;5071625;28;20438;-61
2021/12/22 01:36:07;;;;;;;12.47;9.57;;;;;;;;;;5071553;28;20495;-61
2021/12/22 01:38:33;;;;;;;12.90;10.30;;;;;;;;;;5071531;28;20434;-59
2021/12/22 01:40:59;;;;;;;34.33;10.20;;;;;;;;;;5072886;28;20613;-59
2021/12/22 01:43:25;;;;;;;14.13;9.87;;;;;;;;;;5075437;28;20290;-61
2021/12/22 01:51:25;;;;;;;27.17;11.10;;;;;;;;;;5075218;28;20496;-59
2021/12/22 01:53:51;;;;;;;13.00;10.00;;;;;;;;;;5075038;28;20442;-60
2021/12/22 01:56:24;;;;;;;28.30;11.17;;;;;;;;;;5075119;28;20436;-60
2021/12/22 01:58:52;;;;;;;12.53;10.17;;;;;;;;;;5074620;28;20437;-60
2021/12/22 02:01:18;;;;;;;20.90;12.07;;;;;;;;;;5074365;28;20838;-62
2021/12/22 02:03:48;;;;;;;12.07;9.70;;;;;;;;;;5074995;28;20512;-59
2021/12/22 02:06:14;;;;;;;15.90;10.43;;;;;;;;;;5074882;28;20478;-60
2021/12/22 02:08:44;;;;;;;15.00;10.67;;;;;;;;;;5074889;28;20516;-59
2021/12/22 02:11:10;;;;;;;22.17;10.20;;;;;;;;;;5074950;28;20461;-59
2021/12/22 02:13:39;;;;;;;14.87;9.90;;;;;;;;;;5074990;28;20885;-60
2021/12/22 02:16:09;;;;;;;12.40;10.00;;;;;;;;;;5074824;28;20199;-60
2021/12/22 02:18:35;;;;;;;20.17;11.33;;;;;;;;;;5074824;28;20434;-60
2021/12/22 02:21:04;;;;;;;15.97;11.50;;;;;;;;;;5074758;28;20426;-59
2021/12/22 02:23:30;;;;;;;12.87;9.70;;;;;;;;;;5074867;28;20434;-59
2021/12/22 02:26:02;;;;;;;13.90;10.50;;;;;;;;;;5074487;28;21025;-58
2021/12/22 02:28:32;;;;;;;14.27;10.40;;;;;;;;;;5074841;28;20429;-59
2021/12/22 02:30:58;;;;;;;15.73;10.30;;;;;;;;;;5074572;28;21005;-60
2021/12/22 02:33:33;;;;;;;16.30;11.43;;;;;;;;;;5074727;28;20522;-60
2021/12/22 02:38:34;;;;;;;14.13;10.77;;;;;;;;;;5074641;28;20520;-60
2021/12/22 02:41:00;;;;;;;16.27;11.33;;;;;;;;;;5074343;28;20557;-60
2021/12/22 02:43:31;;;;;;;14.30;10.90;;;;;;;;;;5074492;28;20458;-59
2021/12/22 02:45:58;;;;;;;13.03;10.13;;;;;;;;;;5074242;28;20478;-60
2021/12/22 02:48:27;;;;;;;39.87;10.93;;;;;;;;;;5074320;28;20468;-61
2021/12/22 02:50:56;;;;;;;12.30;9.43;;;;;;;;;;5073920;28;20537;-60
2021/12/22 02:53:27;;;;;;;18.77;10.10;;;;;;;;;;5074043;28;20430;-60
2021/12/22 02:56:07;;;;;;;12.93;10.47;;;;;;;;;;5074076;28;20430;-60
2021/12/22 02:58:41;;;;;;;19.50;11.30;;;;;;;;;;5074035;28;20872;-59
2021/12/22 03:01:26;;;;;;;15.57;10.57;;;;;;;;;;5073564;28;20429;-59
2021/12/22 03:04:02;;;;;;;13.17;10.67;;;;;;;;;;5073846;28;20430;-59
2021/12/22 03:06:34;;;;;;;14.77;9.60;;;;;;;;;;5073819;28;21011;-60
2021/12/22 03:09:01;;;;;;;14.07;9.67;;;;;;;;;;5073900;28;20434;-59
2021/12/22 03:11:29;;;;;;;18.90;10.13;;;;;;;;;;5073910;28;20433;-60
2021/12/22 03:13:55;;;;;;;45.10;11.93;;;;;;;;;;5073702;28;20478;-59
2021/12/22 03:16:21;;;;;;;14.03;9.93;;;;;;;;;;5073856;28;20833;-60
2021/12/22 03:18:47;;;;;;;14.37;10.20;;;;;;;;;;5073711;28;20231;-60
2021/12/22 03:21:23;;;;;;;12.83;10.07;;;;;;;;;;5073838;28;20434;-59
2021/12/22 03:23:50;;;;;;;37.10;11.13;;;;;;;;;;5073546;28;20947;-59
2021/12/22 03:26:17;;;;;;;14.03;10.73;;;;;;;;;;5073524;28;20485;-59
2021/12/22 03:28:46;;;;;;;12.77;10.10;;;;;;;;;;5073573;28;20434;-59
2021/12/22 03:31:12;;;;;;;16.53;10.50;;;;;;;;;;5073547;28;20442;-60
2021/12/22 03:33:38;;;;;;;12.80;10.83;;;;;;;;;;5073236;28;20434;-60
2021/12/22 03:36:05;;;;;;;16.73;10.20;;;;;;;;;;5073036;28;20472;-60
2021/12/22 03:38:32;;;;;;;13.67;10.13;;;;;;;;;;5073348;28;20484;-60
2021/12/22 03:40:58;;;;;;;13.50;9.80;;;;;;;;;;5072910;28;20539;-59
2021/12/22 03:43:24;;;;;;;13.23;9.70;;;;;;;;;;5073134;28;20442;-59
2021/12/22 03:45:52;;;;;;;13.20;9.80;;;;;;;;;;5072778;28;20506;-58
2021/12/22 03:48:18;;;;;;;12.47;8.77;;;;;;;;;;5073004;28;20444;-60
2021/12/22 03:50:45;;;;;;;12.20;9.27;;;;;;;;;;5073066;28;20434;-59
2021/12/22 03:53:12;;;;;;;15.70;9.47;;;;;;;;;;5072828;28;20499;-59
2021/12/22 03:55:38;;;;;;;13.03;8.30;;;;;;;;;;5072926;28;20442;-60
2021/12/22 03:58:06;;;;;;;12.70;9.43;;;;;;;;;;5071822;28;20434;-59
2021/12/22 04:00:33;;;;;;;12.93;9.47;;;;;;;;;;5072682;28;20848;-59
2021/12/22 04:03:01;;;;;;;13.37;9.70;;;;;;;;;;5071878;28;20437;-60
2021/12/22 04:05:27;;;;;;;18.50;9.17;;;;;;;;;;5072688;28;20512;-60
2021/12/22 04:07:55;;;;;;;12.63;9.87;;;;;;;;;;5072640;28;20473;-60
2021/12/22 04:10:22;;;;;;;11.73;9.60;;;;;;;;;;5072533;28;20227;-59
2021/12/22 04:12:50;;;;;;;11.07;8.47;;;;;;;;;;5072651;28;20844;-59
2021/12/22 04:15:16;;;;;;;11.37;9.23;;;;;;;;;;5072948;28;20522;-59
2021/12/22 04:17:42;;;;;;;13.67;8.93;;;;;;;;;;5072440;28;20928;-58
2021/12/22 04:20:10;;;;;;;12.57;9.33;;;;;;;;;;5072399;28;20480;-59
2021/12/22 04:22:37;;;;;;;13.73;9.87;;;;;;;;;;5072478;28;20438;-58
2021/12/22 04:25:04;;;;;;;20.40;10.10;;;;;;;;;;5072373;28;20461;-59
2021/12/22 04:27:30;;;;;;;12.83;9.63;;;;;;;;;;5072607;28;20442;-58
2021/12/22 04:29:59;;;;;;;12.80;10.17;;;;;;;;;;5072364;28;20434;-58
2021/12/22 04:32:25;;;;;;;15.20;10.10;;;;;;;;;;5072299;28;20484;-59
2021/12/22 04:34:51;;;;;;;24.67;10.80;;;;;;;;;;5072328;28;20857;-59
2021/12/22 04:37:18;;;;;;;13.30;10.33;;;;;;;;;;5072321;28;20928;-59
2021/12/22 04:39:44;;;;;;;14.17;10.23;;;;;;;;;;5071933;28;20589;-59
2021/12/22 04:42:10;;;;;;;14.13;10.07;;;;;;;;;;5071907;28;20448;-59
2021/12/22 04:44:36;;;;;;;19.57;10.33;;;;;;;;;;5072007;28;20198;-60
2021/12/22 04:47:03;;;;;;;15.80;9.73;;;;;;;;;;5071987;28;20429;-60
2021/12/22 04:49:29;;;;;;;12.93;9.50;;;;;;;;;;5072393;28;20445;-60
2021/12/22 04:51:56;;;;;;;46.17;11.73;;;;;;;;;;5072112;28;20536;-60
2021/12/22 04:56:52;;;;;;;16.17;10.93;;;;;;;;;;5071980;28;20469;-59
2021/12/22 04:59:19;;;;;;;17.23;11.13;;;;;;;;;;5072228;28;20445;-58
2021/12/22 05:01:45;;;;;;;12.70;9.57;;;;;;;;;;5072119;28;20430;-59
2021/12/22 05:04:11;;;;;;;16.10;9.57;;;;;;;;;;5071741;28;20434;-61
2021/12/22 05:06:37;;;;;;;21.23;11.40;;;;;;;;;;5071920;28;20499;-60
2021/12/22 05:09:03;;;;;;;19.87;9.73;;;;;;;;;;5071919;28;20438;-60
2021/12/22 05:11:30;;;;;;;15.90;10.77;;;;;;;;;;5071832;28;20480;-60
2021/12/22 05:13:56;;;;;;;14.80;10.90;;;;;;;;;;5071766;28;20446;-59
2021/12/22 05:16:22;;;;;;;13.10;9.83;;;;;;;;;;5075734;28;20430;-58
2021/12/22 05:18:58;;;;;;;12.83;10.23;;;;;;;;;;5075852;28;20461;-58
2021/12/22 05:21:25;;;;;;;18.47;11.17;;;;;;;;;;5075985;28;20475;-58
2021/12/22 05:23:51;;;;;;;17.10;10.73;;;;;;;;;;5075788;28;20832;-59
2021/12/22 05:26:17;;;;;;;19.40;10.67;;;;;;;;;;5075992;28;20878;-58
2021/12/22 05:28:44;;;;;;;16.43;10.77;;;;;;;;;;5075855;28;20449;-59
2021/12/22 05:31:10;;;;;;;19.90;10.33;;;;;;;;;;5075577;28;20438;-59
2021/12/22 05:33:36;;;;;;;15.27;9.87;;;;;;;;;;5075630;28;20525;-59
2021/12/22 05:36:03;;;;;;;13.23;10.00;;;;;;;;;;5075556;28;20501;-59
2021/12/22 05:38:29;;;;;;;21.23;11.23;;;;;;;;;;5075452;28;20442;-59
2021/12/22 05:40:55;;;;;;;21.87;10.60;;;;;;;;;;5075302;28;20477;-59
2021/12/22 05:43:21;;;;;;;13.63;9.87;;;;;;;;;;5075549;28;20433;-59
2021/12/22 05:45:48;;;;;;;15.20;9.97;;;;;;;;;;5075469;28;20485;-59
2021/12/22 05:48:14;;;;;;;22.20;10.63;;;;;;;;;;5075338;28;20442;-59
2021/12/22 05:50:44;;;;;;;14.20;10.23;;;;;;;;;;5075466;28;20445;-60
2021/12/22 05:53:10;;;;;;;14.43;11.00;;;;;;;;;;5075084;28;20503;-60
2021/12/22 05:55:36;;;;;;;18.17;10.63;;;;;;;;;;5075060;28;20928;-60
2021/12/22 05:58:02;;;;;;;16.27;10.97;;;;;;;;;;5075189;28;20786;-60
2021/12/22 06:00:28;;;;;;;15.83;10.70;;;;;;;;;;5075332;28;20437;-60
2021/12/22 06:02:56;;;;;;;17.40;10.57;;;;;;;;;;5075026;28;20950;-59
2021/12/22 06:05:22;;;;;;;15.67;11.20;;;;;;;;;;5074998;28;20481;-60
2021/12/22 06:07:48;;;;;;;17.63;11.23;;;;;;;;;;5074939;28;20488;-60
2021/12/22 06:10:15;;;;;;;18.73;11.17;;;;;;;;;;5074970;28;20199;-60
2021/12/22 06:12:41;;;;;;;15.93;11.07;;;;;;;;;;5074774;28;20196;-60
2021/12/22 06:15:07;;;;;;;16.50;11.43;;;;;;;;;;5074579;28;20480;-59
2021/12/22 06:17:33;;;;;;;15.40;10.60;;;;;;;;;;5074356;28;20734;-59
2021/12/22 06:20:03;;;;;;;17.50;12.50;;;;;;;;;;5074582;28;20441;-59
2021/12/22 06:22:31;;;;;;;22.20;10.97;;;;;;;;;;5074765;28;21039;-59
2021/12/22 06:24:57;;;;;;;23.00;11.47;;;;;;;;;;5074642;28;20515;-59
2021/12/22 06:27:23;;;;;;;15.23;11.40;;;;;;;;;;5073939;28;20446;-59
2021/12/22 06:29:49;;;;;;;15.93;11.60;;;;;;;;;;5074681;28;20444;-60
2021/12/22 06:32:15;;;;;;;14.47;11.10;;;;;;;;;;5074765;28;20428;-59
2021/12/22 06:34:41;;;;;;;19.60;11.93;;;;;;;;;;5074561;28;20813;-59
2021/12/22 06:37:08;;;;;;;17.67;11.77;;;;;;;;;;5074003;28;20972;-59
2021/12/22 06:39:35;;;;;;;15.83;11.33;;;;;;;;;;5073858;28;20480;-58
2021/12/22 06:42:01;;;;;;;17.23;11.30;;;;;;;;;;5074171;28;20426;-59
2021/12/22 06:44:27;;;;;;;16.57;11.50;;;;;;;;;;5074236;28;20465;-59
2021/12/22 06:46:53;;;;;;;18.50;12.20;;;;;;;;;;5073948;28;20996;-58
2021/12/22 06:49:19;;;;;;;17.50;11.67;;;;;;;;;;5074255;28;20188;-59
2021/12/22 06:51:45;;;;;;;32.07;12.03;;;;;;;;;;5074186;28;20475;-59
2021/12/22 06:54:13;;;;;;;18.20;11.50;;;;;;;;;;5073859;28;20480;-59
2021/12/22 06:56:39;;;;;;;21.53;11.37;;;;;;;;;;5074003;28;20208;-59
2021/12/22 06:59:05;;;;;;;15.80;11.53;;;;;;;;;;5074023;28;20446;-59
2021/12/22 07:01:34;;;;;;;20.63;11.50;;;;;;;;;;5073960;28;20422;-59
2021/12/22 07:04:00;;;;;;;22.53;10.70;;;;;;;;;;5073772;28;20441;-60
2021/12/22 07:06:26;;;;;;;19.93;11.70;;;;;;;;;;5073805;28;20486;-59
2021/12/22 07:08:52;;;;;;;15.47;11.57;;;;;;;;;;5073731;28;20434;-59
2021/12/22 07:11:19;;;;;;;25.67;11.00;;;;;;;;;;5073618;28;20445;-59
2021/12/22 07:13:45;;;;;;;25.10;11.63;;;;;;;;;;5073878;28;20434;-60
2021/12/22 07:16:13;;;;;;;20.93;12.17;;;;;;;;;;5073572;28;20433;-61
2021/12/22 07:18:39;;;;;;;14.90;11.13;;;;;;;;;;5073550;28;20440;-58
2021/12/22 07:21:05;;;;;;;18.13;11.13;;;;;;;;;;5073273;28;20438;-60
2021/12/22 07:23:31;;;;;;;18.87;11.63;;;;;;;;;;5073436;28;20200;-59
2021/12/22 07:25:57;;;;;;;18.50;11.63;;;;;;;;;;5072112;28;20534;-59
2021/12/22 07:28:24;;;;;;;16.90;11.87;;;;;;;;;;5073470;28;20436;-59
2021/12/22 07:30:50;;;;;;;19.10;12.43;;;;;;;;;;5073342;28;20525;-59
2021/12/22 07:33:18;;;;;;;18.97;12.00;;;;;;;;;;5073195;28;21027;-59
2021/12/22 07:35:46;;;;;;;18.13;11.87;;;;;;;;;;5073149;28;20484;-59
2021/12/22 07:38:23;;;;;;;17.67;11.80;;;;;;;;;;5073071;28;20453;-59
2021/12/22 07:40:49;;;;;;;23.13;11.83;;;;;;;;;;5073173;28;20481;-60
2021/12/22 07:43:15;;;;;;;27.13;11.53;;;;;;;;;;5073054;28;20438;-59
2021/12/22 07:45:42;;;;;;;18.67;11.40;;;;;;;;;;5073047;28;20227;-59
2021/12/22 07:48:08;;;;;;;20.13;11.70;;;;;;;;;;5072112;28;20440;-59
2021/12/22 07:50:34;;;;;;;19.33;11.57;;;;;;;;;;5072636;28;20792;-59
2021/12/22 07:53:00;;;;;;;17.97;12.30;;;;;;;;;;5073021;28;20192;-59
2021/12/22 07:55:26;;;;;;;20.90;12.23;;;;;;;;;;5073020;28;20430;-59
2021/12/22 07:57:52;;;;;;;17.97;11.77;;;;;;;;;;5072467;28;20430;-60
2021/12/22 08:00:18;;;;;;;18.17;12.37;;;;;;;;;;5072635;28;20453;-59
2021/12/22 08:02:45;;;;;;;18.63;11.87;;;;;;;;;;5072957;28;20202;-59
2021/12/22 08:05:11;;;;;;;19.50;12.30;;;;;;;;;;5072404;28;20904;-59
2021/12/22 08:07:37;;;;;;;19.10;12.80;;;;;;;;;;5072745;28;20429;-58
2021/12/22 08:10:07;;;;;;;19.83;12.20;;;;;;;;;;5072640;28;20522;-60
2021/12/22 08:12:33;;;;;;;18.97;12.77;;;;;;;;;;5072532;28;20438;-59
2021/12/22 08:14:59;;;;;;;20.33;12.73;;;;;;;;;;5072515;28;20426;-60
2021/12/22 08:17:27;;;;;;;20.97;12.13;;;;;;;;;;5072416;28;20430;-59
2021/12/22 08:19:54;;;;;;;16.50;11.23;;;;;;;;;;5071860;28;20441;-62
2021/12/22 08:22:20;;;;;;;21.20;12.93;;;;;;;;;;5072303;28;20461;-59
2021/12/22 08:24:46;;;;;;;22.60;12.70;;;;;;;;;;5072259;28;20492;-61
2021/12/22 08:27:13;;;;;;;16.50;11.10;;;;;;;;;;5072146;28;20441;-66
2021/12/22 08:29:42;;;;;;;18.67;12.10;;;;;;;;;;5072235;28;20446;-63
2021/12/22 08:32:08;;;;;;;21.17;12.70;;;;;;;;;;5071862;28;20491;-60
2021/12/22 08:34:37;;;;;;;19.33;12.97;;;;;;;;;;5072109;28;20452;-60
2021/12/22 08:39:50;;;;;;;16.40;11.17;;;;;;;;;;5071837;28;20457;-64
2021/12/22 08:42:17;;;;;;;17.50;11.57;;;;;;;;;;5071939;28;20452;-64
2021/12/22 08:44:43;;;;;;;14.63;10.87;;;;;;;;;;5071547;28;20517;-64
2021/12/22 08:47:09;;;;;;;16.43;11.10;;;;;;;;;;5071694;28;20426;-61
2021/12/22 08:49:35;;;;;;;15.47;11.00;;;;;;;;;;5071474;28;20481;-61
2021/12/22 08:52:01;;;;;;;14.90;10.97;;;;;;;;;;5071972;28;20441;-61
2021/12/22 08:54:28;;;;;;;13.00;9.77;;;;;;;;;;5068354;28;20520;-62
2021/12/22 08:56:55;;;;;;;16.53;10.57;;;;;;;;;;5071630;28;20871;-62
2021/12/22 08:59:22;;;;;;;15.43;10.67;;;;;;;;;;5071627;28;20434;-63
2021/12/22 09:01:48;;;;;;;17.23;11.33;;;;;;;;;;5071726;28;20429;-62
2021/12/22 09:04:14;;;;;;;14.97;10.27;;;;;;;;;;5071654;28;20438;-62
2021/12/22 09:06:41;;;;;;;17.17;10.97;;;;;;;;;;5071447;28;20998;-63
2021/12/22 09:09:08;;;;;;;15.73;11.03;;;;;;;;;;5071260;28;20442;-63
2021/12/22 09:11:35;;;;;;;15.23;11.03;;;;;;;;;;5071634;28;20537;-63
2021/12/22 09:14:03;;;;;;;17.40;11.10;;;;;;;;;;5071513;28;20421;-63
2021/12/22 09:16:29;;;;;;;14.33;10.53;;;;;;;;;;5071598;28;20507;-62
2021/12/22 09:18:58;;;;;;;17.00;11.77;;;;;;;;;;5071538;28;20436;-63
2021/12/22 09:21:25;;;;;;;17.80;11.43;;;;;;;;;;5071398;28;20865;-64
2021/12/22 09:23:51;;;;;;;16.13;11.20;;;;;;;;;;5071390;28;20520;-63
2021/12/22 09:26:17;;;;;;;17.73;11.97;;;;;;;;;;5071198;28;20972;-63
2021/12/22 09:28:45;;;;;;;17.43;10.90;;;;;;;;;;5071480;28;20445;-62
2021/12/22 09:31:12;;;;;;;16.97;11.40;;;;;;;;;;5071230;28;20450;-62
2021/12/22 09:33:38;;;;;;;17.60;11.83;;;;;;;;;;5071395;28;20456;-63
2021/12/22 09:36:06;;;;;;;17.43;11.60;;;;;;;;;;5071187;28;20495;-63
2021/12/22 09:38:32;;;;;;;17.50;11.27;;;;;;;;;;5071520;28;20466;-62
2021/12/22 09:40:58;;;;;;;20.17;11.77;;;;;;;;;;5069815;28;20485;-62
2021/12/22 09:43:24;;;;;;;17.97;11.87;;;;;;;;;;5071205;28;20434;-62
2021/12/22 09:45:57;;;;;;;26.50;17.50;;;;;;;;;;5071230;28;20481;-62
2021/12/22 09:48:35;;;;;;;18.50;12.60;;;;;;;;;;5071247;28;20442;-62
2021/12/22 09:53:29;;;;;;;17.40;12.90;;;;;;;;;;5071246;28;20442;-62
2021/12/22 09:55:55;;;;;;;16.13;12.20;;;;;;;;;;5070853;28;20517;-62
2021/12/22 09:58:21;;;;;;;19.90;11.90;;;;;;;;;;5070930;28;20441;-62
2021/12/22 10:00:48;;;;;;;17.37;12.03;;;;;;;;;;5066928;28;20537;-63
2021/12/22 10:03:16;;;;;;;15.53;11.10;;;;;;;;;;5073608;28;20491;-62
2021/12/22 10:05:43;;;;;;;15.80;11.73;;;;;;;;;;5074919;28;20561;-62
2021/12/22 10:08:11;;;;;;;16.37;10.60;;;;;;;;;;5074842;28;20503;-62
2021/12/22 10:10:38;;;;;;;17.47;11.63;;;;;;;;;;5075041;28;20528;-61
2021/12/22 10:13:05;;;;;;;15.03;10.67;;;;;;;;;;5074721;28;20434;-60
2021/12/22 10:15:33;;;;;;;14.93;11.03;;;;;;;;;;5073609;28;20438;-60
2021/12/22 10:18:07;;;;;;;13.97;10.10;;;;;;;;;;5074647;28;20437;-62
2021/12/22 10:20:35;;;;;;;11.50;8.67;;;;;;;;;;5074703;28;20951;-62
2021/12/22 10:23:01;;;;;;;12.83;9.17;;;;;;;;;;5074538;28;20444;-62
2021/12/22 10:25:29;;;;;;;14.63;9.67;;;;;;;;;;5074564;28;20553;-62
2021/12/22 10:27:58;;;;;;;11.80;8.60;;;;;;;;;;5074409;28;21021;-62
2021/12/22 10:30:26;;;;;;;12.57;9.30;;;;;;;;;;5074199;28;20434;-61
2021/12/22 10:33:04;;;;;;;13.37;9.63;;;;;;;;;;5074575;28;20436;-60
2021/12/22 10:35:32;;;;;;;11.60;8.90;;;;;;;;;;5074642;28;20433;-61
2021/12/22 10:38:01;;;;;;;11.67;8.87;;;;;;;;;;5074272;28;20872;-62
2021/12/22 10:40:29;;;;;;;12.47;9.20;;;;;;;;;;5070030;28;20485;-63
2021/12/22 10:42:55;;;;;;;15.60;10.60;;;;;;;;;;5073551;28;20441;-61
2021/12/22 10:45:22;;;;;;;10.87;8.80;;;;;;;;;;5069972;28;20565;-62
2021/12/22 10:50:34;;;;;;;12.53;9.20;;;;;;;;;;5074176;28;20789;-61
2021/12/22 10:53:02;;;;;;;11.33;9.80;;;;;;;;;;5073868;28;20485;-60
2021/12/22 10:55:36;;;;;;;11.40;8.87;;;;;;;;;;5073833;28;20434;-61
2021/12/22 10:58:02;;;;;;;13.40;11.13;;;;;;;;;;5073521;28;20442;-57
2021/12/22 11:00:28;;;;;;;12.73;10.00;;;;;;;;;;5073312;28;20434;-57
2021/12/22 11:03:05;;;;;;;11.20;8.93;;;;;;;;;;5071458;28;20449;-58
2021/12/22 11:05:31;;;;;;;11.43;9.13;;;;;;;;;;5073214;28;20539;-59
2021/12/22 11:07:58;;;;;;;11.60;8.83;;;;;;;;;;5073170;28;20609;-57
2021/12/22 11:10:27;;;;;;;10.63;8.90;;;;;;;;;;5073049;28;20452;-58
2021/12/22 11:13:01;;;;;;;10.33;8.03;;;;;;;;;;5072686;28;20548;-58
2021/12/22 11:15:27;;;;;;;12.53;9.70;;;;;;;;;;5073104;28;21019;-57
2021/12/22 11:17:53;;;;;;;12.57;9.37;;;;;;;;;;5072936;28;20966;-58
2021/12/22 11:20:22;;;;;;;11.33;9.47;;;;;;;;;;5072840;28;20434;-57
2021/12/22 11:23:04;;;;;;;12.40;8.60;;;;;;;;;;5073102;28;20465;-58
2021/12/22 11:25:31;;;;;;;11.03;9.33;;;;;;;;;;5072848;28;20485;-58
2021/12/22 11:27:58;;;;;;;10.37;8.60;;;;;;;;;;5073031;28;20441;-58
2021/12/22 11:30:26;;;;;;;9.90;8.90;;;;;;;;;;5072703;28;20445;-58
2021/12/22 11:32:52;;;;;;;11.87;9.60;;;;;;;;;;5072532;28;20437;-57
2021/12/22 11:35:20;;;;;;;10.63;9.20;;;;;;;;;;5068942;28;20446;-59
2021/12/22 11:37:47;;;;;;;12.00;9.13;;;;;;;;;;5072419;28;20924;-58
2021/12/22 11:40:16;;;;;;;10.53;8.53;;;;;;;;;;5072226;28;20535;-58
2021/12/22 11:42:44;;;;;;;10.10;8.07;;;;;;;;;;5072826;28;20576;-59
2021/12/22 11:45:11;;;;;;;9.30;8.30;;;;;;;;;;5072404;28;20485;-59
2021/12/22 11:47:39;;;;;;;13.77;9.80;;;;;;;;;;5072676;28;20203;-58
2021/12/22 11:50:12;;;;;;;11.37;9.30;;;;;;;;;;5072827;28;20920;-58
2021/12/22 11:52:39;;;;;;;10.80;9.07;;;;;;;;;;5064941;28;20453;-59
2021/12/22 11:55:06;;;;;;;12.73;9.63;;;;;;;;;;5072082;28;20517;-59
2021/12/22 11:57:32;;;;;;;14.07;9.83;;;;;;;;;;5072271;28;20199;-60
2021/12/22 12:00:19;;;;;;;10.77;9.13;;;;;;;;;;5070704;28;20219;-60
2021/12/22 12:02:45;;;;;;;13.03;9.70;;;;;;;;;;5072886;28;20199;-60
2021/12/22 12:05:15;;;;;;;11.57;9.20;;;;;;;;;;5072562;28;20537;-60
2021/12/22 12:07:42;;;;;;;11.03;8.90;;;;;;;;;;5072891;28;20450;-60
2021/12/22 12:10:29;;;;;;;11.70;9.33;;;;;;;;;;5072490;28;20200;-60
2021/12/22 12:13:01;;;;;;;11.87;9.27;;;;;;;;;;5072561;28;20261;-63
2021/12/22 12:15:51;;;;;;;12.63;9.80;;;;;;;;;;5072284;28;20192;-59
2021/12/22 12:21:44;;;;;;;13.50;9.77;;;;;;;;;;5072041;28;20206;-58
2021/12/22 12:24:29;;;;;;;13.27;10.07;;;;;;;;;;5071463;28;20187;-59
2021/12/22 12:26:56;;;;;;;14.50;10.80;;;;;;;;;;5072275;28;20214;-59
2021/12/22 12:29:37;;;;;;;11.77;10.23;;;;;;;;;;5072265;28;20203;-60
2021/12/22 12:32:04;;;;;;;11.70;9.53;;;;;;;;;;5072117;28;20199;-60
2021/12/22 12:34:30;;;;;;;11.20;9.20;;;;;;;;;;5072316;28;20484;-60
2021/12/22 12:36:56;;;;;;;11.40;9.23;;;;;;;;;;5071955;28;20433;-59
2021/12/22 12:39:37;;;;;;;13.43;9.53;;;;;;;;;;5071826;28;20473;-59
2021/12/22 12:42:05;;;;;;;11.43;9.43;;;;;;;;;;5071735;28;20440;-60
2021/12/22 12:44:31;;;;;;;10.60;9.03;;;;;;;;;;5071938;28;20450;-59
2021/12/22 12:46:57;;;;;;;14.13;10.17;;;;;;;;;;5071504;28;20489;-60
2021/12/22 12:49:39;;;;;;;13.37;10.20;;;;;;;;;;5071078;28;20441;-60
2021/12/22 12:52:07;;;;;;;11.57;9.73;;;;;;;;;;5071978;28;20200;-60
2021/12/22 12:54:39;;;;;;;13.03;10.13;;;;;;;;;;5071827;28;20438;-60
2021/12/22 12:57:20;;;;;;;12.60;10.87;;;;;;;;;;5071437;28;20430;-59
2021/12/22 12:59:48;;;;;;;14.67;10.17;;;;;;;;;;5070646;28;20432;-60
2021/12/22 13:02:20;;;;;;;12.40;10.27;;;;;;;;;;5071873;28;20473;-59
2021/12/22 13:04:46;;;;;;;12.70;9.53;;;;;;;;;;5071656;28;20440;-59
2021/12/22 13:07:13;;;;;;;12.77;9.50;;;;;;;;;;5071237;28;20568;-59
2021/12/22 13:09:40;;;;;;;12.63;9.53;;;;;;;;;;5071908;28;20463;-58
2021/12/22 13:12:14;;;;;;;15.00;9.93;;;;;;;;;;5071718;28;20591;-59
2021/12/22 13:17:28;;;;;;;13.40;10.37;;;;;;;;;;5071633;28;20421;-60
2021/12/22 13:19:55;;;;;;;11.50;9.53;;;;;;;;;;5071996;28;20445;-59
2021/12/22 13:22:23;;;;;;;13.97;9.70;;;;;;;;;;5071331;28;20953;-60
2021/12/22 13:24:49;;;;;;;12.40;9.90;;;;;;;;;;5071536;28;20799;-60
2021/12/22 13:27:28;;;;;;;13.07;9.60;;;;;;;;;;5071592;28;20474;-59
2021/12/22 13:30:07;;;;;;;11.70;9.40;;;;;;;;;;5071767;28;20483;-60
2021/12/22 13:32:34;;;;;;;13.87;10.17;;;;;;;;;;5067295;28;20977;-60
2021/12/22 13:35:00;;;;;;;12.03;9.87;;;;;;;;;;5070239;28;20438;-58
2021/12/22 13:37:26;;;;;;;12.50;9.87;;;;;;;;;;5075186;28;20461;-59
2021/12/22 13:39:53;;;;;;;13.00;10.43;;;;;;;;;;5074950;28;20827;-59
2021/12/22 13:42:19;;;;;;;12.73;9.80;;;;;;;;;;5075121;28;20447;-59
2021/12/22 13:44:45;;;;;;;13.97;10.13;;;;;;;;;;5075134;28;20441;-59
2021/12/22 13:47:11;;;;;;;14.40;10.03;;;;;;;;;;5074916;28;20885;-59
2021/12/22 13:49:38;;;;;;;12.20;10.20;;;;;;;;;;5075038;28;20453;-58
2021/12/22 13:52:04;;;;;;;12.30;9.67;;;;;;;;;;5074854;28;20465;-58
2021/12/22 13:54:34;;;;;;;13.27;9.70;;;;;;;;;;5075314;28;20484;-58
2021/12/22 13:57:01;;;;;;;13.50;9.97;;;;;;;;;;5074861;28;20434;-58
2021/12/22 13:59:30;;;;;;;13.63;10.57;;;;;;;;;;5074950;28;20430;-58
2021/12/22 14:01:56;;;;;;;11.70;9.67;;;;;;;;;;5074736;28;20916;-58
2021/12/22 14:04:27;;;;;;;13.07;10.30;;;;;;;;;;5074852;28;20425;-58
2021/12/22 14:06:55;;;;;;;14.23;10.13;;;;;;;;;;5074630;28;20481;-58
2021/12/22 14:09:22;;;;;;;13.13;10.37;;;;;;;;;;5074031;28;20544;-60
2021/12/22 14:11:52;;;;;;;13.27;10.47;;;;;;;;;;5074767;28;20520;-59
2021/12/22 14:14:28;;;;;;;15.13;10.27;;;;;;;;;;5074662;28;20516;-59
2021/12/22 14:17:06;;;;;;;16.23;11.00;;;;;;;;;;5074445;28;20425;-59
2021/12/22 14:19:33;;;;;;;12.43;10.07;;;;;;;;;;5074506;28;20437;-59
2021/12/22 14:22:02;;;;;;;14.07;9.87;;;;;;;;;;5074633;28;20450;-60
2021/12/22 14:24:29;;;;;;;14.57;10.93;;;;;;;;;;5072651;28;20500;-59
2021/12/22 14:26:58;;;;;;;15.83;11.67;;;;;;;;;;5073902;28;20473;-59
2021/12/22 14:29:25;;;;;;;14.20;10.80;;;;;;;;;;5074092;28;20437;-62
2021/12/22 14:31:55;;;;;;;15.63;11.60;;;;;;;;;;5074499;28;20525;-59
2021/12/22 14:34:21;;;;;;;15.03;10.73;;;;;;;;;;5074404;28;20438;-59
2021/12/22 14:36:49;;;;;;;15.20;11.17;;;;;;;;;;5074511;28;20438;-61
2021/12/22 14:39:16;;;;;;;12.93;10.57;;;;;;;;;;5074143;28;20513;-59
2021/12/22 14:41:42;;;;;;;14.23;11.23;;;;;;;;;;5073995;28;20481;-60
2021/12/22 14:44:18;;;;;;;13.67;10.40;;;;;;;;;;5074025;28;20430;-61
2021/12/22 14:46:45;;;;;;;17.07;12.63;;;;;;;;;;5073408;28;20493;-60
2021/12/22 14:49:14;;;;;;;17.67;12.70;;;;;;;;;;5073465;28;20430;-62
2021/12/22 14:51:42;;;;;;;14.27;11.30;;;;;;;;;;5074005;28;20871;-59